• Join FlightAware (Why Join?)
  • Login
  • US Flag 
08:39AM EDT


 

Airport Tracker/Info


-or-


 

Live Flight TrackerFlight Track Log ✈ GJS3649 ✈ 06-Jul-2013 ✈ KBDL - KIAD

Flight Track Log - Related Links

Times and Time Zones

All times are in EDT time to prevent confusion due to time zone crossing. See the GJS3649 flight status page for this flight to view local times or setup timezone preferences in your user account.

Time Position Orientation Groundspeed Altitude Reporting Facility
EDT Latitude Longitude Course Direction KTS MPH feet Rate Location/Type
03:01PM 41.9500 -72.7053 236° Southwest 150 173 900  Level Boston Center
03:02PM 41.9686 -72.7278 318° Northwest 165 190 2,000 2,280 Climbing Boston Center
03:02PM 42.0019 -72.7725 315° West 222 255 4,100 2,160 Climbing Boston Center
03:03PM 41.9994 -72.8564 268° West 252 290 6,100 2,640 Climbing Boston Center
03:04PM 41.9114 -73.0740 265° West  Level FlightAware Approximate
03:04PM 41.9803 -72.9539 255° West 273 314 9,400  Level Boston Center
03:05PM 41.9020 -73.2060 265° West  Level FlightAware Approximate
03:05PM 41.9611 -73.0486 255° West 273 314 10,400  Level Boston Center
03:06PM 41.8841 -73.3319 236° Southwest  Level FlightAware Approximate
03:06PM 41.9417 -73.1433 255° West 288 331 12,000  Level Boston Center
03:07PM 41.9036 -73.2631 247° West 308 354 14,400 2,160 Climbing Boston Center
03:08PM 41.8608 -73.3711 242° Southwest 325 374 16,400 1,560 Climbing Boston Center
03:09PM 41.8206 -73.4736 242° Southwest 342 394 17,600 1,320 Climbing Boston Center
03:11PM 41.6925 -73.6631 228° Southwest 334 384 20,300 1,500 Climbing New York Center
03:12PM 41.5969 -73.7447 213° Southwest 355 409 22,000 1,740 Climbing New York Center
03:13PM 41.5139 -73.8158 213° Southwest 368 423 23,900 1,560 Climbing New York Center
03:14PM 41.4225 -73.8836 209° Southwest 373 429 25,300 1,320 Climbing New York Center
03:15PM 41.3397 -73.9489 211° Southwest 378 435 26,500 1,020 Climbing New York Center
03:16PM 41.2439 -74.0217 210° Southwest 396 456 27,300 780 Climbing New York Center
03:17PM 41.1500 -74.0997 212° Southwest 403 464 28,100 780 Climbing New York Center
03:18PM 41.0775 -74.2336 234° Southwest 398 458 29,000 720 Climbing New York Center
03:19PM 41.0131 -74.3653 237° Southwest 418 481 29,600 -240 Climbing New York Center
03:20PM 40.9464 -74.4989 237° Southwest 430 495 28,600 -840 Descending New York Center
03:21PM 40.8919 -74.6442 244° Southwest 436 502 27,900 -360 Descending New York Center
03:22PM 40.8456 -74.7842 246° West 436 502 28,000  Climbing New York Center
03:23PM 40.8008 -74.9322 248° West 436 502 28,000  Level New York Center
03:24PM 40.7558 -75.0803 248° West 436 502 28,000  Level New York Center
03:25PM 40.6906 -75.2131 237° Southwest 431 496 28,000  Level New York Center
03:26PM 40.6231 -75.3453 236° Southwest 436 502 28,000 -780 Level New York Center
03:27PM 40.5553 -75.4747 235° Southwest 441 507 26,500 -1,920 Descending New York Center
03:28PM 40.4878 -75.6011 235° Southwest 441 507 24,200 -2,280 Descending New York Center
03:29PM 40.4219 -75.7272 236° Southwest 435 501 22,000 -2,100 Descending New York Center
03:30PM 40.3564 -75.8506 235° Southwest 424 488 20,000 -1,020 Descending New York Center
03:31PM 40.2953 -75.9606 234° Southwest 419 482 20,000  Level New York Center
03:32PM 40.2339 -76.0783 236° Southwest 412 474 20,000  Level New York Center
03:33PM 40.1697 -76.2039 236° Southwest 405 466 20,000  Level New York Center
03:34PM 40.1014 -76.3314 235° Southwest 411 473 20,000 -660 Level New York Center
03:37PM 39.9667 -76.6167 238° Southwest 395 455 17,800 -1,140 Descending Potomac TRACON
03:38PM 39.9167 -76.7167 237° Southwest 369 425 16,400 -1,440 Descending Potomac TRACON
03:39PM 39.8667 -76.8333 241° Southwest 357 411 15,100 -780 Descending Potomac TRACON
03:40PM 39.8167 -76.9333 237° Southwest 354 407 15,000 -540 Descending Potomac TRACON
03:41PM 39.7667 -77.0333 237° Southwest 352 405 14,100 -1,260 Descending Potomac TRACON
03:42PM 39.7333 -77.1333 247° West 312 359 12,500 -1,620 Descending Potomac TRACON
03:43PM 39.6652 -77.2470 232° Southwest  Level FlightAware Approximate
03:44PM 39.6500 -77.3000 232° Southwest 279 321 9,400  Level Potomac TRACON
03:45PM 39.5833 -77.3667 218° Southwest 271 312 7,900 -1,500 Descending Potomac TRACON
03:46PM 39.5167 -77.4000 201° Southwest 269 310 6,400 -1,500 Descending Potomac TRACON
03:47PM 39.4500 -77.4333 201° Southwest 267 307 4,900 -1,200 Descending Potomac TRACON
03:48PM 39.3667 -77.4333 180° South 257 296 4,000 -600 Descending Potomac TRACON
03:49PM 39.3000 -77.4333 180° South 255 293 3,800 -540 Descending Potomac TRACON
03:50PM 39.2333 -77.4333 180° South 230 265 3,000 -420 Descending Potomac TRACON
03:51PM 39.1833 -77.4333 180° South 195 224 3,000  Level Potomac TRACON
03:51PM 39.1333 -77.4333 180° South 197 227 3,000 -180 Level Potomac TRACON
03:52PM 39.0833 -77.4333 180° South 179 206 2,700 -300 Descending Potomac TRACON